createdAt,value
2019-03-18T00:00:17.995Z,94.40
2019-03-18T00:02:47.271Z,94.50
2019-03-18T00:05:16.609Z,94.80
2019-03-18T00:07:46.006Z,95.20
2019-03-18T00:10:15.321Z,94.80
2019-03-18T00:12:44.569Z,94.60
2019-03-18T00:15:13.793Z,94.30
2019-03-18T00:17:43.025Z,94.90
2019-03-18T00:20:12.395Z,95.00
2019-03-18T00:22:41.639Z,94.80
2019-03-18T00:25:12.705Z,94.60
2019-03-18T00:27:41.949Z,94.70
2019-03-18T00:30:15.676Z,94.00
2019-03-18T00:32:44.969Z,94.30
2019-03-18T00:35:14.335Z,94.10
2019-03-18T00:37:43.657Z,94.10
2019-03-18T00:40:14.411Z,94.20
2019-03-18T00:42:43.692Z,94.40
2019-03-18T00:45:15.335Z,94.30
2019-03-18T00:47:44.139Z,94.50
2019-03-18T00:50:15.370Z,94.40
2019-03-18T00:52:45.173Z,94.30
2019-03-18T00:55:14.755Z,94.40
2019-03-18T00:57:44.041Z,94.40
2019-03-18T01:00:18.052Z,94.30
2019-03-18T01:02:49.838Z,94.50
2019-03-18T01:05:19.492Z,94.60
2019-03-18T01:07:48.796Z,94.80
2019-03-18T01:10:18.527Z,94.40
2019-03-18T01:12:47.767Z,94.30
2019-03-18T01:15:27.467Z,94.20
2019-03-18T01:17:56.829Z,94.30
2019-03-18T01:20:26.074Z,94.50
2019-03-18T01:22:55.300Z,94.70
2019-03-18T01:25:24.552Z,94.20
2019-03-18T01:27:53.792Z,94.40
2019-03-18T01:30:23.025Z,94.80
2019-03-18T01:32:52.247Z,95.00
2019-03-18T01:35:21.591Z,95.00
2019-03-18T01:37:50.833Z,94.90
2019-03-18T01:40:20.072Z,95.00
2019-03-18T01:42:49.316Z,95.00
2019-03-18T01:45:18.559Z,94.90
2019-03-18T01:47:47.845Z,94.80
2019-03-18T01:50:17.083Z,94.70
2019-03-18T01:52:46.360Z,95.10
2019-03-18T01:55:15.607Z,94.80
2019-03-18T01:57:44.866Z,95.00
2019-03-18T02:00:17.225Z,94.50
2019-03-18T02:02:46.446Z,94.70
2019-03-18T02:05:15.752Z,95.20
2019-03-18T02:07:44.998Z,95.10
2019-03-18T02:10:15.753Z,95.10
2019-03-18T02:12:44.980Z,94.90
2019-03-18T02:15:15.276Z,94.90
2019-03-18T02:17:44.579Z,95.20
2019-03-18T02:20:14.973Z,95.40
2019-03-18T02:22:44.274Z,95.20
2019-03-18T02:25:13.608Z,95.30
2019-03-18T02:27:42.841Z,95.20
2019-03-18T02:30:15.352Z,95.40
2019-03-18T02:32:44.650Z,95.40
2019-03-18T02:35:13.911Z,95.20
2019-03-18T02:37:43.200Z,95.10
2019-03-18T02:40:12.987Z,94.80
2019-03-18T02:42:42.313Z,94.70
2019-03-18T02:45:12.001Z,94.90
2019-03-18T02:47:41.280Z,94.60
2019-03-18T02:50:10.979Z,95.00
2019-03-18T02:52:40.218Z,94.80
2019-03-18T02:55:10.013Z,94.70
2019-03-18T02:57:39.271Z,94.60
2019-03-18T03:00:11.914Z,94.70
2019-03-18T03:02:41.248Z,94.60
2019-03-18T03:05:12.024Z,94.80
2019-03-18T03:07:41.340Z,94.70
2019-03-18T03:10:14.491Z,94.60
2019-03-18T03:12:43.807Z,94.50
2019-03-18T03:15:14.383Z,94.50
2019-03-18T03:17:43.990Z,94.60
2019-03-18T03:20:13.534Z,94.60
2019-03-18T03:22:42.918Z,94.80
2019-03-18T03:25:12.488Z,95.10
2019-03-18T03:27:41.766Z,95.10
2019-03-18T03:30:13.797Z,95.30
2019-03-18T03:32:43.149Z,95.20
2019-03-18T03:35:12.605Z,95.40
2019-03-18T03:37:41.888Z,95.70
2019-03-18T03:40:12.213Z,95.70
2019-03-18T03:42:41.557Z,95.90
2019-03-18T03:45:12.741Z,96.10
2019-03-18T03:47:42.235Z,96.20
2019-03-18T03:50:13.903Z,96.10
2019-03-18T03:52:43.185Z,96.20
2019-03-18T03:55:13.366Z,96.30
2019-03-18T03:57:42.592Z,96.90
2019-03-18T04:00:15.509Z,96.60
2019-03-18T04:02:45.005Z,96.40
2019-03-18T04:05:14.352Z,96.50
2019-03-18T04:07:43.705Z,96.80
2019-03-18T04:10:15.016Z,96.80
2019-03-18T04:12:44.448Z,96.80
2019-03-18T04:15:14.693Z,96.80
2019-03-18T04:17:43.993Z,96.80
2019-03-18T04:20:17.133Z,96.50
2019-03-18T04:22:46.403Z,96.50
2019-03-18T04:25:15.618Z,96.70
2019-03-18T04:27:44.845Z,97.00
2019-03-18T04:30:15.112Z,97.60
2019-03-18T04:32:44.356Z,97.30
2019-03-18T04:35:13.852Z,97.40
2019-03-18T04:37:43.077Z,97.30
2019-03-18T04:40:12.294Z,97.30
2019-03-18T04:42:41.677Z,97.30
2019-03-18T04:45:11.335Z,97.50
2019-03-18T04:47:40.584Z,97.50
2019-03-18T04:50:11.256Z,97.70
2019-03-18T04:52:40.491Z,97.70
2019-03-18T04:55:09.870Z,97.90
2019-03-18T04:57:39.080Z,98.20
2019-03-18T05:00:12.699Z,98.50
2019-03-18T05:02:42.004Z,98.60
2019-03-18T05:05:11.311Z,98.80
2019-03-18T05:07:43.759Z,99.00
2019-03-18T05:10:13.049Z,99.20
2019-03-18T05:12:42.262Z,99.40
2019-03-18T05:15:11.683Z,99.70
2019-03-18T05:17:40.921Z,99.80
2019-03-18T05:20:11.305Z,99.80
2019-03-18T05:22:40.513Z,99.90
2019-03-18T05:25:10.651Z,99.90
2019-03-18T05:27:39.985Z,99.90
2019-03-18T05:30:13.892Z,99.90
2019-03-18T05:32:43.195Z,99.90
2019-03-18T05:35:12.434Z,99.90
2019-03-18T05:37:41.657Z,99.90
2019-03-18T05:40:11.108Z,99.90
2019-03-18T05:42:40.420Z,99.90
2019-03-18T05:45:11.011Z,99.90
2019-03-18T05:47:40.921Z,99.90
2019-03-18T05:50:11.294Z,99.90
2019-03-18T05:52:40.691Z,99.90
2019-03-18T05:55:10.677Z,99.90
2019-03-18T05:57:39.960Z,99.90
2019-03-18T06:00:13.740Z,99.90
2019-03-18T06:02:42.972Z,99.90
2019-03-18T06:05:12.336Z,99.90
2019-03-18T06:07:41.602Z,99.90
2019-03-18T06:10:12.720Z,99.90
2019-03-18T06:12:41.958Z,99.90
2019-03-18T06:15:12.308Z,99.90
2019-03-18T06:17:51.493Z,99.90
2019-03-18T06:20:12.667Z,99.90
2019-03-18T06:22:41.929Z,99.90
2019-03-18T06:25:11.299Z,99.90
2019-03-18T06:27:40.552Z,99.90
2019-03-18T06:30:12.204Z,99.90
2019-03-18T06:32:41.427Z,99.90
2019-03-18T06:35:11.591Z,99.90
2019-03-18T06:37:40.938Z,99.90
2019-03-18T06:40:11.710Z,99.90
2019-03-18T06:42:40.957Z,99.90
2019-03-18T06:45:11.332Z,99.90
2019-03-18T06:47:40.630Z,99.50
2019-03-18T06:50:11.983Z,99.40
2019-03-18T06:52:41.300Z,99.20
2019-03-18T06:55:10.616Z,98.70
2019-03-18T06:57:39.944Z,98.60
2019-03-18T07:00:14.177Z,98.20
2019-03-18T07:02:43.413Z,98.00
2019-03-18T07:05:12.722Z,97.70
2019-03-18T07:07:41.963Z,97.50
2019-03-18T07:10:14.473Z,97.00
2019-03-18T07:12:43.705Z,96.40
2019-03-18T07:15:13.178Z,96.00
2019-03-18T07:17:42.422Z,95.60
2019-03-18T07:20:13.645Z,94.30
2019-03-18T07:22:43.118Z,94.10
2019-03-18T07:25:12.416Z,93.60
2019-03-18T07:27:41.651Z,91.60
2019-03-18T07:30:12.919Z,91.20
2019-03-18T07:32:42.155Z,90.50
2019-03-18T07:35:11.812Z,90.10
2019-03-18T07:37:41.057Z,88.20
2019-03-18T07:40:14.541Z,84.40
2019-03-18T07:42:43.762Z,84.50
2019-03-18T07:45:15.904Z,82.20
2019-03-18T07:47:45.109Z,82.50
2019-03-18T07:50:15.881Z,79.90
2019-03-18T07:52:45.223Z,80.70
2019-03-18T07:55:14.471Z,78.50
2019-03-18T07:57:43.773Z,79.80
2019-03-18T08:00:15.339Z,80.60
2019-03-18T08:02:44.662Z,81.00
2019-03-18T08:05:13.889Z,82.50
2019-03-18T08:07:43.149Z,81.40
2019-03-18T08:10:13.493Z,81.80
2019-03-18T08:12:42.724Z,81.10
2019-03-18T08:15:13.084Z,80.30
2019-03-18T08:17:42.318Z,80.00
2019-03-18T08:20:12.599Z,80.20
2019-03-18T08:22:41.842Z,80.00
2019-03-18T08:25:11.810Z,79.40
2019-03-18T08:27:41.057Z,80.20
2019-03-18T08:30:17.495Z,81.30
2019-03-18T08:32:46.714Z,80.60
2019-03-18T08:35:16.015Z,81.20
2019-03-18T08:37:45.261Z,82.20
2019-03-18T08:40:14.519Z,83.10
2019-03-18T08:42:43.742Z,83.90
2019-03-18T08:45:13.867Z,84.90
2019-03-18T08:47:43.183Z,86.00
2019-03-18T08:50:12.981Z,87.60
2019-03-18T08:52:42.339Z,90.40
2019-03-18T08:55:12.316Z,92.10
2019-03-18T08:57:41.689Z,93.60
2019-03-18T09:00:17.817Z,95.10
2019-03-18T09:02:47.075Z,96.00
2019-03-18T09:05:16.307Z,96.90
2019-03-18T09:07:45.569Z,97.40
2019-03-18T09:10:18.330Z,97.50
2019-03-18T09:12:47.553Z,97.70
2019-03-18T09:15:16.803Z,96.90
2019-03-18T09:17:46.161Z,96.60
2019-03-18T09:20:16.442Z,96.60
2019-03-18T09:22:45.783Z,96.70
2019-03-18T09:25:15.136Z,96.40
2019-03-18T09:27:44.351Z,95.50
2019-03-18T09:30:20.405Z,94.40
2019-03-18T09:32:49.730Z,93.40
2019-03-18T09:35:18.946Z,92.80
2019-03-18T09:37:48.175Z,92.00
2019-03-18T09:40:17.812Z,91.00
2019-03-18T09:42:47.157Z,89.10
2019-03-18T09:45:17.525Z,90.70
2019-03-18T09:47:46.942Z,90.60
2019-03-18T09:50:17.096Z,87.00
2019-03-18T09:52:46.361Z,85.60
2019-03-18T09:55:15.597Z,87.20
2019-03-18T09:57:44.818Z,86.20
2019-03-18T10:00:18.287Z,86.70
2019-03-18T10:02:47.667Z,87.90
2019-03-18T10:05:16.973Z,88.40
2019-03-18T10:07:46.220Z,88.90
2019-03-18T10:10:15.587Z,88.60
2019-03-18T10:12:44.828Z,89.60
2019-03-18T10:15:21.114Z,89.50
2019-03-18T10:17:50.331Z,86.30
2019-03-18T10:20:19.566Z,85.10
2019-03-18T10:22:48.791Z,83.90
2019-03-18T10:25:18.038Z,80.40
2019-03-18T10:27:47.276Z,79.10
2019-03-18T10:30:16.682Z,76.30
2019-03-18T10:32:45.919Z,76.10
2019-03-18T10:35:15.226Z,77.50
2019-03-18T10:37:44.466Z,79.10
2019-03-18T10:40:14.448Z,74.80
2019-03-18T10:42:43.688Z,74.60
2019-03-18T10:45:13.758Z,75.90
2019-03-18T10:47:43.051Z,72.00
2019-03-18T10:50:16.407Z,70.40
2019-03-18T10:52:45.672Z,69.30
2019-03-18T10:55:15.179Z,67.80
2019-03-18T10:57:44.459Z,67.60
2019-03-18T11:00:18.616Z,66.70
2019-03-18T11:02:47.910Z,67.00
2019-03-18T11:05:17.198Z,66.90
2019-03-18T11:07:46.463Z,67.10
2019-03-18T11:10:16.445Z,65.90
2019-03-18T11:12:45.668Z,65.10
2019-03-18T11:15:17.199Z,65.50
2019-03-18T11:17:46.453Z,63.10
2019-03-18T11:20:16.638Z,63.90
2019-03-18T11:22:45.884Z,63.50
2019-03-18T11:25:16.074Z,63.60
2019-03-18T11:27:45.370Z,64.30
2019-03-18T11:30:18.624Z,64.10
2019-03-18T11:32:47.916Z,65.20
2019-03-18T11:35:17.205Z,66.10
2019-03-18T11:37:46.425Z,65.00
2019-03-18T11:40:21.008Z,65.00
2019-03-18T11:42:50.692Z,65.60
2019-03-18T11:45:20.010Z,65.50
2019-03-18T11:47:49.266Z,66.60
2019-03-18T11:50:19.673Z,65.90
2019-03-18T11:52:49.051Z,65.50
2019-03-18T11:55:25.897Z,65.50
2019-03-18T11:57:55.372Z,65.60
2019-03-18T12:00:25.754Z,65.60
2019-03-18T12:02:55.046Z,66.40
2019-03-18T12:05:25.635Z,66.70
2019-03-18T12:07:56.336Z,65.70
2019-03-18T12:10:38.086Z,65.50
2019-03-18T12:13:07.335Z,65.60
2019-03-18T12:15:41.547Z,65.30
2019-03-18T12:18:17.412Z,65.50
2019-03-18T12:20:46.709Z,65.60
2019-03-18T12:23:15.994Z,66.20
2019-03-18T12:25:45.250Z,67.60
2019-03-18T12:28:14.577Z,69.30
2019-03-18T12:30:43.907Z,72.10
2019-03-18T12:33:13.251Z,76.10
2019-03-18T12:35:42.588Z,79.30
2019-03-18T12:38:12.160Z,82.20
2019-03-18T12:40:41.555Z,84.30
2019-03-18T12:43:10.960Z,85.20
2019-03-18T12:45:40.274Z,85.50
2019-03-18T12:48:09.684Z,86.00
2019-03-18T12:50:54.394Z,84.60
2019-03-18T12:53:09.873Z,82.10
2019-03-18T12:55:39.189Z,80.60
2019-03-18T12:58:08.551Z,79.30
2019-03-18T13:00:37.762Z,80.10
2019-03-18T13:03:07.061Z,78.70
2019-03-18T13:05:36.390Z,77.80
2019-03-18T13:08:06.352Z,74.20
2019-03-18T13:10:35.583Z,70.70
2019-03-18T13:13:04.934Z,65.70
2019-03-18T13:15:34.227Z,63.70
2019-03-18T13:18:03.437Z,62.50
2019-03-18T13:20:32.673Z,62.80
2019-03-18T13:23:01.903Z,64.00
2019-03-18T13:25:31.158Z,64.80
2019-03-18T13:28:00.959Z,63.70
2019-03-18T13:30:30.226Z,63.90
2019-03-18T13:32:59.476Z,63.70
2019-03-18T13:35:28.806Z,61.40
2019-03-18T13:37:58.300Z,61.40
2019-03-18T13:40:27.526Z,60.40
2019-03-18T13:42:56.776Z,61.00
2019-03-18T13:45:26.009Z,59.70
2019-03-18T13:47:55.231Z,59.40
2019-03-18T13:50:24.551Z,59.30
2019-03-18T13:52:53.773Z,59.40
2019-03-18T13:55:23.011Z,59.10
2019-03-18T13:57:52.319Z,59.40
2019-03-18T14:00:22.276Z,60.10
2019-03-18T14:02:51.675Z,59.70
2019-03-18T14:05:20.965Z,59.30
2019-03-18T14:08:00.318Z,59.10
2019-03-18T14:10:22.296Z,59.00
2019-03-18T14:12:51.602Z,58.50
2019-03-18T14:15:24.732Z,57.10
2019-03-18T14:17:54.321Z,55.40
2019-03-18T14:20:25.799Z,55.70
2019-03-18T14:22:55.113Z,56.30
2019-03-18T14:25:24.431Z,57.00
2019-03-18T14:27:53.752Z,58.00
2019-03-18T14:30:23.625Z,57.10
2019-03-18T14:32:52.883Z,56.50
2019-03-18T14:35:22.299Z,56.00
2019-03-18T14:37:51.893Z,55.70
2019-03-18T14:40:24.788Z,55.70
2019-03-18T14:42:54.044Z,55.40
2019-03-18T14:45:24.877Z,55.40
2019-03-18T14:47:54.412Z,55.20
2019-03-18T14:50:23.675Z,54.70
2019-03-18T14:52:52.919Z,55.30
2019-03-18T14:55:22.197Z,55.90
2019-03-18T14:57:51.478Z,56.70
2019-03-18T15:00:30.089Z,57.80
2019-03-18T15:02:59.524Z,58.50
2019-03-18T15:05:28.857Z,58.80
2019-03-18T15:07:58.476Z,59.90
2019-03-18T15:10:29.682Z,59.70
2019-03-18T15:12:59.034Z,60.40
2019-03-18T15:15:28.287Z,59.70
2019-03-18T15:17:57.534Z,59.70
2019-03-18T15:20:28.779Z,60.10
2019-03-18T15:22:58.163Z,60.60
2019-03-18T15:25:32.398Z,60.80
2019-03-18T15:28:01.672Z,61.10
2019-03-18T15:30:31.071Z,61.70
2019-03-18T15:33:00.399Z,62.00
2019-03-18T15:35:29.709Z,61.60
2019-03-18T15:38:00.049Z,61.70
2019-03-18T15:40:29.954Z,61.20
2019-03-18T15:42:59.216Z,61.20
2019-03-18T15:45:28.555Z,60.90
2019-03-18T15:47:58.199Z,61.00
2019-03-18T15:50:27.865Z,61.20
2019-03-18T15:52:57.298Z,61.10
2019-03-18T15:55:26.585Z,61.50
2019-03-18T15:57:55.910Z,62.30
2019-03-18T16:00:30.797Z,61.80
2019-03-18T16:03:00.595Z,62.50
2019-03-18T16:05:29.818Z,61.60
2019-03-18T16:07:59.124Z,61.40
2019-03-18T16:10:28.360Z,61.40
2019-03-18T16:12:57.593Z,60.90
2019-03-18T16:15:26.836Z,61.10
2019-03-18T16:17:56.103Z,61.40
2019-03-18T16:20:26.372Z,62.80
2019-03-18T16:22:55.693Z,69.10
2019-03-18T16:25:24.936Z,75.30
2019-03-18T16:27:54.871Z,80.70
2019-03-18T16:30:24.175Z,85.80
2019-03-18T16:32:53.511Z,91.00
2019-03-18T16:35:22.828Z,93.30
2019-03-18T16:37:52.070Z,94.00
2019-03-18T16:40:22.140Z,94.30
2019-03-18T16:42:51.378Z,94.50
2019-03-18T16:45:20.890Z,94.60
2019-03-18T16:47:50.124Z,94.70
2019-03-18T16:50:24.710Z,94.10
2019-03-18T16:52:53.967Z,93.60
2019-03-18T16:55:23.261Z,92.50
2019-03-18T16:57:52.508Z,91.80
2019-03-18T17:00:25.614Z,91.20
2019-03-18T17:02:55.053Z,91.30
2019-03-18T17:05:24.407Z,91.50
2019-03-18T17:07:54.329Z,92.10
2019-03-18T17:10:24.189Z,93.00
2019-03-18T17:12:53.480Z,93.00
2019-03-18T17:15:23.205Z,93.80
2019-03-18T17:17:53.252Z,94.40
2019-03-18T17:20:22.527Z,95.00
2019-03-18T17:22:51.844Z,96.00
2019-03-18T17:25:24.209Z,96.80
2019-03-18T17:27:53.451Z,97.10
2019-03-18T17:30:22.770Z,97.90
2019-03-18T17:32:52.009Z,98.80
2019-03-18T17:35:21.258Z,99.20
2019-03-18T17:37:50.517Z,99.30
2019-03-18T17:40:20.822Z,99.10
2019-03-18T17:42:50.119Z,99.50
2019-03-18T17:45:19.607Z,99.60
2019-03-18T17:47:48.853Z,99.80
2019-03-18T17:50:23.556Z,99.90
2019-03-18T17:53:02.565Z,99.90
2019-03-18T17:55:23.733Z,99.90
2019-03-18T17:57:52.972Z,99.90
2019-03-18T18:00:24.045Z,99.90
2019-03-18T18:02:53.293Z,99.90
2019-03-18T18:05:22.591Z,99.90
2019-03-18T18:07:52.639Z,99.90
2019-03-18T18:10:21.899Z,99.90
2019-03-18T18:12:51.137Z,99.90
2019-03-18T18:15:20.365Z,99.90
2019-03-18T18:17:49.611Z,99.90
2019-03-18T18:20:18.907Z,99.90
2019-03-18T18:22:48.130Z,99.90
2019-03-18T18:25:17.394Z,99.90
2019-03-18T18:27:46.613Z,99.90
2019-03-18T18:30:17.858Z,99.90
2019-03-18T18:32:47.147Z,99.90
2019-03-18T18:35:16.397Z,99.90
2019-03-18T18:37:45.637Z,99.90
2019-03-18T18:40:23.021Z,99.90
2019-03-18T18:42:52.297Z,99.90
2019-03-18T18:45:21.601Z,99.90
2019-03-18T18:47:50.888Z,99.90
2019-03-18T18:50:20.194Z,99.90
2019-03-18T18:52:49.440Z,99.90
2019-03-18T18:55:18.689Z,99.90
2019-03-18T18:57:47.955Z,99.90
2019-03-18T19:00:19.309Z,99.90
2019-03-18T19:02:48.621Z,99.90
2019-03-18T19:05:18.556Z,99.90
2019-03-18T19:07:47.866Z,99.90
2019-03-18T19:10:18.170Z,99.90
2019-03-18T19:12:47.509Z,99.90
2019-03-18T19:15:21.639Z,99.90
2019-03-18T19:17:50.937Z,99.90
2019-03-18T19:20:20.197Z,99.90
2019-03-18T19:22:49.635Z,99.90
2019-03-18T19:25:19.121Z,99.90
2019-03-18T19:27:48.474Z,99.90
2019-03-18T19:30:19.078Z,99.90
2019-03-18T19:32:48.640Z,99.90
2019-03-18T19:35:17.961Z,99.90
2019-03-18T19:37:47.344Z,99.90
2019-03-18T19:40:20.713Z,99.90
2019-03-18T19:42:50.110Z,99.90
2019-03-18T19:45:19.425Z,99.90
2019-03-18T19:47:48.722Z,99.90
2019-03-18T19:50:29.157Z,99.90
2019-03-18T19:52:58.579Z,99.90
2019-03-18T19:55:27.862Z,99.90
2019-03-18T19:57:57.101Z,99.90
2019-03-18T20:00:30.401Z,99.90
2019-03-18T20:02:59.627Z,99.90
2019-03-18T20:05:28.856Z,99.90
2019-03-18T20:07:58.158Z,99.90
2019-03-18T20:10:27.416Z,99.90
2019-03-18T20:12:56.794Z,99.90
2019-03-18T20:15:26.065Z,99.90
2019-03-18T20:17:55.478Z,99.90
2019-03-18T20:20:26.312Z,99.90
2019-03-18T20:22:55.531Z,99.90
2019-03-18T20:25:24.750Z,99.90
2019-03-18T20:27:53.970Z,99.90
2019-03-18T20:30:23.556Z,99.90
2019-03-18T20:32:52.791Z,99.90
2019-03-18T20:35:22.990Z,99.90
2019-03-18T20:37:52.678Z,99.90
2019-03-18T20:40:21.969Z,99.90
2019-03-18T20:42:51.231Z,99.90
2019-03-18T20:45:24.959Z,99.90
2019-03-18T20:47:54.277Z,99.90
2019-03-18T20:50:24.424Z,99.90
2019-03-18T20:52:53.675Z,99.90
2019-03-18T20:55:22.931Z,99.90
2019-03-18T20:57:52.261Z,99.90
2019-03-18T21:00:22.617Z,99.90
2019-03-18T21:02:51.871Z,99.90
2019-03-18T21:05:21.181Z,99.90
2019-03-18T21:07:50.566Z,99.90
2019-03-18T21:10:20.653Z,99.90
2019-03-18T21:12:49.927Z,99.90
2019-03-18T21:15:19.269Z,99.90
2019-03-18T21:17:48.573Z,99.90
2019-03-18T21:20:25.812Z,99.90
2019-03-18T21:22:55.113Z,99.90
2019-03-18T21:25:24.426Z,99.90
2019-03-18T21:27:53.669Z,99.90
2019-03-18T21:30:23.475Z,99.90
2019-03-18T21:32:52.904Z,99.90
2019-03-18T21:35:22.140Z,99.90
2019-03-18T21:37:51.973Z,99.90
2019-03-18T21:40:21.907Z,99.90
2019-03-18T21:42:51.240Z,99.90
2019-03-18T21:45:24.465Z,99.90
2019-03-18T21:47:53.815Z,99.90
2019-03-18T21:50:23.137Z,99.90
2019-03-18T21:52:52.382Z,99.90
2019-03-18T21:55:21.636Z,99.90
2019-03-18T21:57:50.898Z,99.90
2019-03-18T22:00:21.235Z,99.90
2019-03-18T22:02:51.439Z,99.90
2019-03-18T22:05:20.831Z,99.90
2019-03-18T22:07:50.148Z,99.90
2019-03-18T22:10:20.469Z,99.90
2019-03-18T22:12:49.726Z,99.90
2019-03-18T22:15:19.111Z,99.90
2019-03-18T22:17:48.402Z,99.90
2019-03-18T22:20:18.726Z,99.90
2019-03-18T22:22:48.406Z,99.90
2019-03-18T22:25:17.736Z,99.90
2019-03-18T22:27:47.070Z,99.90
2019-03-18T22:30:17.608Z,99.90
2019-03-18T22:32:47.503Z,99.90
2019-03-18T22:35:16.786Z,99.90
2019-03-18T22:37:46.024Z,99.90
2019-03-18T22:40:16.593Z,99.90
2019-03-18T22:42:45.841Z,99.90
2019-03-18T22:45:16.262Z,99.90
2019-03-18T22:47:45.689Z,99.90
2019-03-18T22:50:16.614Z,99.90
2019-03-18T22:52:45.908Z,99.90
2019-03-18T22:55:15.585Z,99.90
2019-03-18T22:57:45.345Z,99.90
2019-03-18T23:00:41.934Z,99.90
2019-03-18T23:03:12.806Z,99.90
2019-03-18T23:05:42.303Z,99.90
2019-03-18T23:08:11.515Z,99.90
2019-03-18T23:10:40.840Z,99.90
2019-03-18T23:13:15.870Z,99.90
2019-03-18T23:15:44.897Z,99.90
2019-03-18T23:18:14.575Z,99.90
2019-03-18T23:20:43.849Z,99.90
2019-03-18T23:23:13.069Z,99.90
2019-03-18T23:25:42.339Z,99.90
2019-03-18T23:28:11.671Z,99.90
2019-03-18T23:30:41.168Z,99.90
2019-03-18T23:33:10.417Z,99.90
2019-03-18T23:35:39.641Z,99.90
2019-03-18T23:38:09.373Z,99.90
2019-03-18T23:40:38.661Z,99.90
2019-03-18T23:43:07.890Z,99.90
2019-03-18T23:45:37.157Z,99.90
2019-03-18T23:48:07.013Z,99.90
2019-03-18T23:50:36.309Z,99.90
2019-03-18T23:53:05.609Z,99.90
2019-03-18T23:55:34.821Z,99.90
2019-03-18T23:58:04.208Z,99.90
